Tasman — ZDKI2 — position and weather

sailwx.info

Track history (hours):
 
Tides and Currents Weather Stations Pressure Air Temp Water Temp Dewpoint Dewpoint Depression Visibility Wind Speed Wind Dir Waves Ship Positions

Tasman

Last reported at 2015-Jul-07 04:33 UTC. Time now 2015-Jul-08 06:35 UTC.
Position N 54°37' W 005°54'.

Length 90 m; draft 4 m.

Type: Ship. MMSI: 23617000.

Date/timePositionNaut miles runAvg speedWind from/ knotsBaromVisibWave heightAir tempDewpointWater temp
2015-Jul-07 04:33N 54°37' W 005°54'8 8.1
2015-Jul-07 03:34N 54°42' W 005°43'7 7.0
2015-Jul-07 02:34N 54°43' W 005°31'4 4.3
2015-Jul-07 01:34N 54°41' W 005°25'3 2.7
2015-Jul-07 00:33N 54°38' W 005°25'1 1.1
2015-Jul-06 23:33N 54°37' W 005°24'1 1.1
2015-Jul-06 22:33N 54°36' W 005°24'2 2.0
2015-Jul-06 21:34N 54°34' W 005°23'7 6.6
2015-Jul-06 20:34N 54°28' W 005°20'8 7.6
2015-Jul-06 19:34N 54°20' W 005°20'13 8.7
2015-Jul-06 18:07N 54°07' W 005°23'10410.4
2015-Jul-06 08:06N 52°24' W 005°41'610.2
2015-Jul-06 07:32N 52°18' W 005°43'165 6.9
2015-Jul-05 07:33N 50°01' W 003°16'10 9.6
2015-Jul-05 06:30N 50°01' W 003°00'7612.8
2015-Jul-05 00:32N 49°48' W 001°04'12 9.8
2015-Jul-04 23:22N 49°43' W 000°47'8 9.2
2015-Jul-04 22:29N 49°40' W 000°36'8 9.0
2015-Jul-04 21:33N 49°36' W 000°25'9 9.5
2015-Jul-04 20:33N 49°31' W 000°12'9 9.4
2015-Jul-04 19:33N 49°27' E 000°01'1211.9
2015-Jul-04 18:34N 49°26' E 000°20'1111.4
2015-Jul-04 17:33N 49°26' E 000°37'7 0.4
2015-Jul-03 21:32N 49°30' E 000°46'9 9.3
2015-Jul-03 20:33N 49°27' E 000°33'1313.0
2015-Jul-03 19:33N 49°26' E 000°13'1212.4
2015-Jul-03 18:33N 49°29' W 000°05'8 8.1
2015-Jul-03 17:33N 49°31' W 000°17'5 5.0
2015-Jul-03 16:33N 49°36' W 000°19'7 7.3
2015-Jul-03 15:33N 49°42' W 000°13'6 5.9
2015-Jul-03 14:32N 49°48' W 000°11'49 7.0
2015-Jul-03 07:33N 50°33' E 000°19'1110.8
2015-Jul-03 06:33N 50°38' E 000°34'1212.3
2015-Jul-03 05:33N 50°45' E 000°49'1312.6
2015-Jul-03 04:33N 50°53' E 001°05'1211.8
2015-Jul-03 03:33N 51°00' E 001°20'1010.3
2015-Jul-03 02:33N 51°07' E 001°32'8 8.4
2015-Jul-03 01:33N 51°13' E 001°42'9 8.6
2015-Jul-03 00:33N 51°19' E 001°51'10 9.6
2015-Jul-02 23:33N 51°27' E 002°00'6212.3
2015-Jul-02 18:32N 52°03' E 003°21'1212.4
2015-Jul-02 17:33N 52°03' E 003°41'1211.9
2015-Jul-02 16:34N 52°01' E 003°60'1211.9
2015-Jul-02 15:33N 51°54' E 004°16'6 5.8
2015-Jul-02 14:34N 51°51' E 004°23'10 9.8
2015-Jul-02 13:33N 51°47' E 004°38'6 5.6
2015-Jul-02 12:33N 51°42' E 004°35'0 0.0
2015-Jul-02 11:31N 51°42' E 004°35'0 0.0
2015-Jul-02 10:24N 51°42' E 004°35'0 0.0
2015-Jul-02 09:30N 51°42' E 004°35'0 0.0
2015-Jul-02 08:33N 51°42' E 004°35'0 0.0
2015-Jul-02 07:32N 51°42' E 004°35'0 0.0
2015-Jul-02 06:29N 51°42' E 004°35'0 0.0
2015-Jul-02 05:31N 51°42' E 004°35'0 0.0
2015-Jul-02 04:31N 51°42' E 004°35'0 0.0
2015-Jul-02 03:33N 51°42' E 004°35'0 0.0
2015-Jul-02 02:33N 51°42' E 004°35'0 0.0
2015-Jul-02 01:29N 51°42' E 004°35'0 0.0
2015-Jul-02 00:32N 51°42' E 004°35'0 0.0
2015-Jul-01 23:32N 51°42' E 004°35'0 0.0
2015-Jul-01 22:31N 51°42' E 004°35'0 0.0
2015-Jul-01 21:31N 51°42' E 004°35'0 0.0
2015-Jul-01 20:33N 51°42' E 004°35'0 0.0
2015-Jul-01 19:33N 51°42' E 004°35'0 0.0
2015-Jul-01 18:33N 51°42' E 004°35'0 0.0
2015-Jul-01 17:32N 51°42' E 004°35'0 0.0
2015-Jul-01 16:32N 51°42' E 004°35'0 0.0
2015-Jul-01 15:31N 51°42' E 004°35'0 0.0
2015-Jul-01 14:31N 51°42' E 004°35'0 0.0
2015-Jul-01 13:18N 51°42' E 004°35'0 0.0
2015-Jul-01 12:33N 51°42' E 004°35'0 0.0
2015-Jul-01 11:32N 51°42' E 004°35'0 0.0
2015-Jul-01 10:26N 51°42' E 004°35'0 0.0
2015-Jul-01 09:29N 51°42' E 004°35'0 0.0
2015-Jul-01 08:28N 51°42' E 004°35'0 0.0
2015-Jul-01 07:22N 51°42' E 004°35'0 0.0
2015-Jul-01 06:18N 51°42' E 004°35'0 0.0
2015-Jul-01 05:33N 51°42' E 004°35'0 0.0
2015-Jul-01 04:29N 51°42' E 004°35'0 0.0
2015-Jul-01 03:32N 51°42' E 004°35'0 0.0
2015-Jul-01 02:32N 51°42' E 004°35'0 0.0
2015-Jul-01 01:28N 51°42' E 004°35'0 0.0
2015-Jul-01 00:25N 51°42' E 004°35'0 0.0
2015-Jun-30 23:33N 51°42' E 004°35'0 0.0
2015-Jun-30 22:15N 51°42' E 004°35'0 0.0
2015-Jun-30 21:32N 51°42' E 004°35'0 0.0
2015-Jun-30 20:26N 51°42' E 004°35'0 0.0
2015-Jun-30 19:25N 51°42' E 004°35'0 0.0
2015-Jun-30 18:31N 51°42' E 004°35'0 0.0
2015-Jun-30 17:22N 51°42' E 004°35'0 0.0
2015-Jun-30 16:30N 51°42' E 004°35'0 0.2
2015-Jun-30 15:31N 51°42' E 004°35'8 8.2
2015-Jun-30 14:33N 51°50' E 004°33'9 9.0
2015-Jun-30 13:33N 51°53' E 004°20'7 7.5
2015-Jun-30 12:33N 51°57' E 004°10'1110.7
2015-Jun-30 11:33N 51°60' E 003°53'2511.5
2015-Jun-30 09:24N 51°53' E 003°14'910.6
2015-Jun-30 08:33N 51°50' E 003°00'1010.3
2015-Jun-30 07:33N 51°47' E 002°44'5 5.2
2015-Jun-30 06:33N 51°45' E 002°37'8 7.6
2015-Jun-30 05:33N 51°39' E 002°29'10 9.8
2015-Jun-30 04:32N 51°32' E 002°18'1010.3
2015-Jun-30 03:32N 51°23' E 002°10'1110.9
2015-Jun-30 02:33N 51°13' E 002°01'1111.2
2015-Jun-30 01:33N 51°07' E 001°47'1211.9
2015-Jun-30 00:33N 50°58' E 001°34'1312.8
2015-Jun-29 23:33N 50°47' E 001°23'1411.9
2015-Jun-29 22:23N 50°37' E 001°08'1111.5
2015-Jun-29 21:28N 50°31' E 000°54'1111.8
2015-Jun-29 20:30N 50°28' E 000°37'2412.5
2015-Jun-29 18:33N 50°20' E 000°01'1712.7
2015-Jun-29 17:15N 50°16' W 000°25'2012.1
2015-Jun-29 15:33N 50°11' W 000°55'1210.6
2015-Jun-29 14:27N 50°08' W 001°13'8 9.5
2015-Jun-29 13:33N 50°05' W 001°26'12 8.5
2015-Jun-29 12:08N 50°02' W 001°43'6 8.0
2015-Jun-29 11:25N 49°60' W 001°52'7 8.3
2015-Jun-29 10:33N 49°58' W 002°03'4710.7
2015-Jun-29 06:12N 49°42' W 003°11'2511.9
2015-Jun-29 04:05N 49°30' W 003°45'1212.1
2015-Jun-29 03:05N 49°24' W 004°01'712.0
2015-Jun-29 02:31N 49°21' W 004°10'1512.0
2015-Jun-29 01:17N 49°13' W 004°30'912.1
2015-Jun-29 00:33N 49°09' W 004°42'  
Track history (hours):
 
Tides and Currents Weather Stations Pressure Air Temp Water Temp Dewpoint Dewpoint Depression Visibility Wind Speed Wind Dir Waves Ship Positions

Tasman

Last reported at 2015-Jul-07 04:33 UTC. Time now 2015-Jul-08 06:35 UTC.
Position N 54°37' W 005°54'.

Length 90 m; draft 4 m.

Type: Ship. MMSI: 23617000.

Date/timePositionNaut miles runAvg speedWind from/ knotsBaromVisibWave heightAir tempDewpointWater temp
2015-Jul-07 04:33N 54°37' W 005°54'8 8.1
2015-Jul-07 03:34N 54°42' W 005°43'7 7.0
2015-Jul-07 02:34N 54°43' W 005°31'4 4.3
2015-Jul-07 01:34N 54°41' W 005°25'3 2.7
2015-Jul-07 00:33N 54°38' W 005°25'1 1.1
2015-Jul-06 23:33N 54°37' W 005°24'1 1.1
2015-Jul-06 22:33N 54°36' W 005°24'2 2.0
2015-Jul-06 21:34N 54°34' W 005°23'7 6.6
2015-Jul-06 20:34N 54°28' W 005°20'8 7.6
2015-Jul-06 19:34N 54°20' W 005°20'13 8.7
2015-Jul-06 18:07N 54°07' W 005°23'10410.4
2015-Jul-06 08:06N 52°24' W 005°41'610.2
2015-Jul-06 07:32N 52°18' W 005°43'165 6.9
2015-Jul-05 07:33N 50°01' W 003°16'10 9.6
2015-Jul-05 06:30N 50°01' W 003°00'7612.8
2015-Jul-05 00:32N 49°48' W 001°04'12 9.8
2015-Jul-04 23:22N 49°43' W 000°47'8 9.2
2015-Jul-04 22:29N 49°40' W 000°36'8 9.0
2015-Jul-04 21:33N 49°36' W 000°25'9 9.5
2015-Jul-04 20:33N 49°31' W 000°12'9 9.4
2015-Jul-04 19:33N 49°27' E 000°01'1211.9
2015-Jul-04 18:34N 49°26' E 000°20'1111.4
2015-Jul-04 17:33N 49°26' E 000°37'7 0.4
2015-Jul-03 21:32N 49°30' E 000°46'9 9.3
2015-Jul-03 20:33N 49°27' E 000°33'1313.0
2015-Jul-03 19:33N 49°26' E 000°13'1212.4
2015-Jul-03 18:33N 49°29' W 000°05'8 8.1
2015-Jul-03 17:33N 49°31' W 000°17'5 5.0
2015-Jul-03 16:33N 49°36' W 000°19'7 7.3
2015-Jul-03 15:33N 49°42' W 000°13'6 5.9
2015-Jul-03 14:32N 49°48' W 000°11'49 7.0
2015-Jul-03 07:33N 50°33' E 000°19'1110.8
2015-Jul-03 06:33N 50°38' E 000°34'1212.3
2015-Jul-03 05:33N 50°45' E 000°49'1312.6
2015-Jul-03 04:33N 50°53' E 001°05'1211.8
2015-Jul-03 03:33N 51°00' E 001°20'1010.3
2015-Jul-03 02:33N 51°07' E 001°32'8 8.4
2015-Jul-03 01:33N 51°13' E 001°42'9 8.6
2015-Jul-03 00:33N 51°19' E 001°51'10 9.6
2015-Jul-02 23:33N 51°27' E 002°00'6212.3
2015-Jul-02 18:32N 52°03' E 003°21'1212.4
2015-Jul-02 17:33N 52°03' E 003°41'1211.9
2015-Jul-02 16:34N 52°01' E 003°60'1211.9
2015-Jul-02 15:33N 51°54' E 004°16'6 5.8
2015-Jul-02 14:34N 51°51' E 004°23'10 9.8
2015-Jul-02 13:33N 51°47' E 004°38'6 5.6
2015-Jul-02 12:33N 51°42' E 004°35'0 0.0
2015-Jul-02 11:31N 51°42' E 004°35'0 0.0
2015-Jul-02 10:24N 51°42' E 004°35'0 0.0
2015-Jul-02 09:30N 51°42' E 004°35'0 0.0
2015-Jul-02 08:33N 51°42' E 004°35'0 0.0
2015-Jul-02 07:32N 51°42' E 004°35'0 0.0
2015-Jul-02 06:29N 51°42' E 004°35'0 0.0
2015-Jul-02 05:31N 51°42' E 004°35'0 0.0
2015-Jul-02 04:31N 51°42' E 004°35'0 0.0
2015-Jul-02 03:33N 51°42' E 004°35'0 0.0
2015-Jul-02 02:33N 51°42' E 004°35'0 0.0
2015-Jul-02 01:29N 51°42' E 004°35'0 0.0
2015-Jul-02 00:32N 51°42' E 004°35'0 0.0
2015-Jul-01 23:32N 51°42' E 004°35'0 0.0
2015-Jul-01 22:31N 51°42' E 004°35'0 0.0
2015-Jul-01 21:31N 51°42' E 004°35'0 0.0
2015-Jul-01 20:33N 51°42' E 004°35'0 0.0
2015-Jul-01 19:33N 51°42' E 004°35'0 0.0
2015-Jul-01 18:33N 51°42' E 004°35'0 0.0
2015-Jul-01 17:32N 51°42' E 004°35'0 0.0
2015-Jul-01 16:32N 51°42' E 004°35'0 0.0
2015-Jul-01 15:31N 51°42' E 004°35'0 0.0
2015-Jul-01 14:31N 51°42' E 004°35'0 0.0
2015-Jul-01 13:18N 51°42' E 004°35'0 0.0
2015-Jul-01 12:33N 51°42' E 004°35'0 0.0
2015-Jul-01 11:32N 51°42' E 004°35'0 0.0
2015-Jul-01 10:26N 51°42' E 004°35'0 0.0
2015-Jul-01 09:29N 51°42' E 004°35'0 0.0
2015-Jul-01 08:28N 51°42' E 004°35'0 0.0
2015-Jul-01 07:22N 51°42' E 004°35'0 0.0
2015-Jul-01 06:18N 51°42' E 004°35'0 0.0
2015-Jul-01 05:33N 51°42' E 004°35'0 0.0
2015-Jul-01 04:29N 51°42' E 004°35'0 0.0
2015-Jul-01 03:32N 51°42' E 004°35'0 0.0
2015-Jul-01 02:32N 51°42' E 004°35'0 0.0
2015-Jul-01 01:28N 51°42' E 004°35'0 0.0
2015-Jul-01 00:25N 51°42' E 004°35'0 0.0
2015-Jun-30 23:33N 51°42' E 004°35'0 0.0
2015-Jun-30 22:15N 51°42' E 004°35'0 0.0
2015-Jun-30 21:32N 51°42' E 004°35'0 0.0
2015-Jun-30 20:26N 51°42' E 004°35'0 0.0
2015-Jun-30 19:25N 51°42' E 004°35'0 0.0
2015-Jun-30 18:31N 51°42' E 004°35'0 0.0
2015-Jun-30 17:22N 51°42' E 004°35'0 0.0
2015-Jun-30 16:30N 51°42' E 004°35'0 0.2
2015-Jun-30 15:31N 51°42' E 004°35'8 8.2
2015-Jun-30 14:33N 51°50' E 004°33'9 9.0
2015-Jun-30 13:33N 51°53' E 004°20'7 7.5
2015-Jun-30 12:33N 51°57' E 004°10'1110.7
2015-Jun-30 11:33N 51°60' E 003°53'2511.5
2015-Jun-30 09:24N 51°53' E 003°14'910.6
2015-Jun-30 08:33N 51°50' E 003°00'1010.3
2015-Jun-30 07:33N 51°47' E 002°44'5 5.2
2015-Jun-30 06:33N 51°45' E 002°37'8 7.6
2015-Jun-30 05:33N 51°39' E 002°29'10 9.8
2015-Jun-30 04:32N 51°32' E 002°18'1010.3
2015-Jun-30 03:32N 51°23' E 002°10'1110.9
2015-Jun-30 02:33N 51°13' E 002°01'1111.2
2015-Jun-30 01:33N 51°07' E 001°47'1211.9
2015-Jun-30 00:33N 50°58' E 001°34'1312.8
2015-Jun-29 23:33N 50°47' E 001°23'1411.9
2015-Jun-29 22:23N 50°37' E 001°08'1111.5
2015-Jun-29 21:28N 50°31' E 000°54'1111.8
2015-Jun-29 20:30N 50°28' E 000°37'2412.5
2015-Jun-29 18:33N 50°20' E 000°01'1712.7
2015-Jun-29 17:15N 50°16' W 000°25'2012.1
2015-Jun-29 15:33N 50°11' W 000°55'1210.6
2015-Jun-29 14:27N 50°08' W 001°13'8 9.5
2015-Jun-29 13:33N 50°05' W 001°26'12 8.5
2015-Jun-29 12:08N 50°02' W 001°43'6 8.0
2015-Jun-29 11:25N 49°60' W 001°52'7 8.3
2015-Jun-29 10:33N 49°58' W 002°03'4710.7
2015-Jun-29 06:12N 49°42' W 003°11'2511.9
2015-Jun-29 04:05N 49°30' W 003°45'1212.1
2015-Jun-29 03:05N 49°24' W 004°01'712.0
2015-Jun-29 02:31N 49°21' W 004°10'1512.0
2015-Jun-29 01:17N 49°13' W 004°30'912.1
2015-Jun-29 00:33N 49°09' W 004°42'  

Dump ship's entire track history